createdAt,value
2023-04-01T00:10:05.849Z,14.64
2023-04-01T00:40:08.711Z,15.18
2023-04-01T01:10:12.888Z,17.19
2023-04-01T01:40:15.757Z,16.36
2023-04-01T02:10:19.452Z,15.22
2023-04-01T02:40:22.296Z,13.80
2023-04-01T03:10:26.200Z,15.91
2023-04-01T03:40:29.072Z,16.96
2023-04-01T04:10:33.377Z,15.46
2023-04-01T04:40:36.208Z,13.85
2023-04-01T05:10:39.802Z,15.64
2023-04-01T05:40:42.649Z,17.30
2023-04-01T06:10:47.300Z,16.43
2023-04-01T06:40:50.147Z,14.30
2023-04-01T07:10:54.627Z,15.74
2023-04-01T07:40:57.561Z,17.21
2023-04-01T08:11:01.270Z,17.63
2023-04-01T08:41:04.102Z,16.50
2023-04-01T09:11:07.920Z,15.30
2023-04-01T09:41:10.971Z,18.08
2023-04-01T10:11:18.063Z,17.61
2023-04-01T10:41:20.912Z,17.49
2023-04-01T11:11:25.807Z,16.58
2023-04-01T11:41:28.852Z,15.09
2023-04-01T12:11:32.941Z,14.83
2023-04-01T12:41:35.842Z,12.62
2023-04-01T13:11:39.422Z,17.05
2023-04-01T13:41:42.783Z,16.16
2023-04-01T14:11:45.982Z,14.56
2023-04-01T14:41:49.276Z,13.51
2023-04-01T15:11:53.212Z,13.51
2023-04-01T15:41:56.591Z,12.82
2023-04-01T16:12:00.184Z,14.73
2023-04-01T16:42:03.509Z,14.50
2023-04-01T17:12:07.144Z,13.87
2023-04-01T17:42:10.131Z,12.74
2023-04-01T18:12:14.071Z,12.15
2023-04-01T18:42:16.927Z,10.60
2023-04-01T19:12:21.676Z,11.15
2023-04-01T19:42:24.577Z,12.85
2023-04-01T20:12:28.943Z,12.64
2023-04-01T20:42:31.813Z,10.52
2023-04-01T21:12:34.965Z,9.45
2023-04-01T21:42:37.847Z,10.44
2023-04-01T22:12:41.932Z,8.81
2023-04-01T22:42:44.841Z,9.47
2023-04-01T23:12:49.534Z,7.35
2023-04-01T23:42:52.497Z,8.52
